sensor_id;sensor_type;location;lat;lon;timestamp;P1;durP1;ratioP1;P2;durP2;ratioP2
72949;SDS011;64868;45.710;9.590;2023-11-21T00:00:13;29.35;;;17.85;;
72949;SDS011;64868;45.710;9.590;2023-11-21T00:02:43;29.70;;;19.15;;
72949;SDS011;64868;45.710;9.590;2023-11-21T00:05:11;31.17;;;17.85;;
72949;SDS011;64868;45.710;9.590;2023-11-21T00:07:41;30.23;;;20.27;;
72949;SDS011;64868;45.710;9.590;2023-11-21T00:10:09;28.33;;;19.17;;
72949;SDS011;64868;45.710;9.590;2023-11-21T00:12:37;32.38;;;19.42;;
72949;SDS011;64868;45.710;9.590;2023-11-21T00:15:05;27.20;;;18.05;;
72949;SDS011;64868;45.710;9.590;2023-11-21T00:17:34;27.10;;;20.33;;
72949;SDS011;64868;45.710;9.590;2023-11-21T00:20:04;28.17;;;18.50;;
72949;SDS011;64868;45.710;9.590;2023-11-21T00:22:37;27.40;;;16.75;;
72949;SDS011;64868;45.710;9.590;2023-11-21T00:25:07;27.88;;;17.33;;
72949;SDS011;64868;45.710;9.590;2023-11-21T00:30:24;28.38;;;17.05;;
72949;SDS011;64868;45.710;9.590;2023-11-21T00:35:38;27.23;;;17.80;;
72949;SDS011;64868;45.710;9.590;2023-11-21T00:41:08;29.27;;;17.52;;
72949;SDS011;64868;45.710;9.590;2023-11-21T00:43:38;28.77;;;17.98;;
72949;SDS011;64868;45.710;9.590;2023-11-21T00:48:54;25.60;;;17.17;;
72949;SDS011;64868;45.710;9.590;2023-11-21T00:51:24;27.67;;;17.20;;
72949;SDS011;64868;45.710;9.590;2023-11-21T00:53:54;28.17;;;16.83;;
72949;SDS011;64868;45.710;9.590;2023-11-21T00:56:24;29.20;;;16.60;;
72949;SDS011;64868;45.710;9.590;2023-11-21T00:58:52;29.20;;;17.20;;
72949;SDS011;64868;45.710;9.590;2023-11-21T01:01:22;26.38;;;16.85;;
72949;SDS011;64868;45.710;9.590;2023-11-21T01:03:52;29.38;;;17.17;;
72949;SDS011;64868;45.710;9.590;2023-11-21T01:06:20;34.28;;;18.00;;
72949;SDS011;64868;45.710;9.590;2023-11-21T01:08:47;25.60;;;16.40;;
72949;SDS011;64868;45.710;9.590;2023-11-21T01:11:15;25.88;;;16.17;;
72949;SDS011;64868;45.710;9.590;2023-11-21T01:13:42;28.10;;;18.52;;
72949;SDS011;64868;45.710;9.590;2023-11-21T01:18:58;33.13;;;17.65;;
72949;SDS011;64868;45.710;9.590;2023-11-21T01:21:29;28.65;;;17.27;;
72949;SDS011;64868;45.710;9.590;2023-11-21T01:26:43;24.92;;;16.98;;
72949;SDS011;64868;45.710;9.590;2023-11-21T01:29:10;28.00;;;17.63;;
72949;SDS011;64868;45.710;9.590;2023-11-21T01:34:25;27.02;;;16.65;;
72949;SDS011;64868;45.710;9.590;2023-11-21T01:36:55;27.27;;;17.02;;
72949;SDS011;64868;45.710;9.590;2023-11-21T01:39:25;23.88;;;15.82;;
72949;SDS011;64868;45.710;9.590;2023-11-21T01:41:53;26.15;;;17.13;;
72949;SDS011;64868;45.710;9.590;2023-11-21T01:44:21;26.58;;;17.80;;
72949;SDS011;64868;45.710;9.590;2023-11-21T01:46:48;25.83;;;16.80;;
72949;SDS011;64868;45.710;9.590;2023-11-21T01:49:19;27.73;;;16.85;;
72949;SDS011;64868;45.710;9.590;2023-11-21T01:54:35;28.85;;;17.55;;
72949;SDS011;64868;45.710;9.590;2023-11-21T01:57:02;28.02;;;17.00;;
72949;SDS011;64868;45.710;9.590;2023-11-21T01:59:49;26.95;;;17.55;;
72949;SDS011;64868;45.710;9.590;2023-11-21T02:02:35;26.60;;;16.33;;
72949;SDS011;64868;45.710;9.590;2023-11-21T02:05:05;23.30;;;16.00;;
72949;SDS011;64868;45.710;9.590;2023-11-21T02:07:35;27.45;;;17.17;;
72949;SDS011;64868;45.710;9.590;2023-11-21T02:10:05;26.98;;;17.00;;
72949;SDS011;64868;45.710;9.590;2023-11-21T02:12:36;31.08;;;18.23;;
72949;SDS011;64868;45.710;9.590;2023-11-21T02:15:06;31.60;;;17.63;;
72949;SDS011;64868;45.710;9.590;2023-11-21T02:17:50;27.58;;;16.98;;
72949;SDS011;64868;45.710;9.590;2023-11-21T02:20:21;27.65;;;16.67;;
72949;SDS011;64868;45.710;9.590;2023-11-21T02:22:55;26.45;;;16.52;;
72949;SDS011;64868;45.710;9.590;2023-11-21T02:28:15;28.90;;;17.45;;
72949;SDS011;64868;45.710;9.590;2023-11-21T02:31:01;27.08;;;16.17;;
72949;SDS011;64868;45.710;9.590;2023-11-21T02:33:32;27.90;;;16.65;;
72949;SDS011;64868;45.710;9.590;2023-11-21T02:36:18;25.63;;;16.77;;
72949;SDS011;64868;45.710;9.590;2023-11-21T02:39:04;27.00;;;17.08;;
72949;SDS011;64868;45.710;9.590;2023-11-21T02:41:31;23.92;;;16.77;;
72949;SDS011;64868;45.710;9.590;2023-11-21T02:43:59;26.43;;;16.43;;
72949;SDS011;64868;45.710;9.590;2023-11-21T02:46:26;26.08;;;16.75;;
72949;SDS011;64868;45.710;9.590;2023-11-21T02:48:57;27.67;;;16.67;;
72949;SDS011;64868;45.710;9.590;2023-11-21T02:51:27;27.05;;;17.17;;
72949;SDS011;64868;45.710;9.590;2023-11-21T02:53:57;29.15;;;16.90;;
72949;SDS011;64868;45.710;9.590;2023-11-21T02:56:27;24.60;;;16.10;;
72949;SDS011;64868;45.710;9.590;2023-11-21T02:58:55;23.30;;;16.10;;
72949;SDS011;64868;45.710;9.590;2023-11-21T03:01:23;24.92;;;16.95;;
72949;SDS011;64868;45.710;9.590;2023-11-21T03:03:54;25.88;;;17.25;;
72949;SDS011;64868;45.710;9.590;2023-11-21T03:06:24;27.30;;;18.67;;
72949;SDS011;64868;45.710;9.590;2023-11-21T03:08:51;30.60;;;17.50;;
72949;SDS011;64868;45.710;9.590;2023-11-21T03:11:19;24.45;;;16.85;;
72949;SDS011;64868;45.710;9.590;2023-11-21T03:13:46;26.25;;;16.38;;
72949;SDS011;64868;45.710;9.590;2023-11-21T03:16:33;25.13;;;16.30;;
72949;SDS011;64868;45.710;9.590;2023-11-21T03:19:03;24.50;;;16.88;;
72949;SDS011;64868;45.710;9.590;2023-11-21T03:21:33;24.13;;;16.23;;
72949;SDS011;64868;45.710;9.590;2023-11-21T03:26:50;25.27;;;16.65;;
72949;SDS011;64868;45.710;9.590;2023-11-21T03:29:20;26.17;;;16.42;;
72949;SDS011;64868;45.710;9.590;2023-11-21T03:31:50;24.58;;;16.08;;
72949;SDS011;64868;45.710;9.590;2023-11-21T03:34:23;24.20;;;16.77;;
72949;SDS011;64868;45.710;9.590;2023-11-21T03:36:54;25.77;;;15.98;;
72949;SDS011;64868;45.710;9.590;2023-11-21T03:39:24;27.77;;;16.65;;
72949;SDS011;64868;45.710;9.590;2023-11-21T03:41:54;24.63;;;15.05;;
72949;SDS011;64868;45.710;9.590;2023-11-21T03:44:24;33.35;;;16.60;;
72949;SDS011;64868;45.710;9.590;2023-11-21T03:46:54;24.77;;;15.75;;
72949;SDS011;64868;45.710;9.590;2023-11-21T03:49:25;25.48;;;16.83;;
72949;SDS011;64868;45.710;9.590;2023-11-21T03:51:55;27.73;;;15.30;;
72949;SDS011;64868;45.710;9.590;2023-11-21T03:54:25;24.58;;;16.25;;
72949;SDS011;64868;45.710;9.590;2023-11-21T03:57:11;26.85;;;15.93;;
72949;SDS011;64868;45.710;9.590;2023-11-21T03:59:39;24.40;;;15.43;;
72949;SDS011;64868;45.710;9.590;2023-11-21T04:02:10;25.42;;;15.57;;
72949;SDS011;64868;45.710;9.590;2023-11-21T04:04:40;24.40;;;15.57;;
72949;SDS011;64868;45.710;9.590;2023-11-21T04:07:10;23.17;;;15.27;;
72949;SDS011;64868;45.710;9.590;2023-11-21T04:09:40;25.67;;;15.02;;
72949;SDS011;64868;45.710;9.590;2023-11-21T04:12:08;27.20;;;16.58;;
72949;SDS011;64868;45.710;9.590;2023-11-21T04:14:38;23.88;;;15.90;;
72949;SDS011;64868;45.710;9.590;2023-11-21T04:17:25;25.15;;;15.75;;
72949;SDS011;64868;45.710;9.590;2023-11-21T04:19:52;23.15;;;14.93;;
72949;SDS011;64868;45.710;9.590;2023-11-21T04:22:22;22.42;;;15.38;;
72949;SDS011;64868;45.710;9.590;2023-11-21T04:24:52;22.67;;;14.85;;
72949;SDS011;64868;45.710;9.590;2023-11-21T04:27:20;23.15;;;14.90;;
72949;SDS011;64868;45.710;9.590;2023-11-21T04:30:04;27.75;;;15.15;;
72949;SDS011;64868;45.710;9.590;2023-11-21T04:32:32;22.85;;;15.43;;
72949;SDS011;64868;45.710;9.590;2023-11-21T04:34:58;22.58;;;15.25;;
72949;SDS011;64868;45.710;9.590;2023-11-21T04:37:27;22.55;;;14.60;;
72949;SDS011;64868;45.710;9.590;2023-11-21T04:42:42;26.52;;;15.60;;
72949;SDS011;64868;45.710;9.590;2023-11-21T04:45:12;24.98;;;15.00;;
72949;SDS011;64868;45.710;9.590;2023-11-21T04:50:28;28.10;;;16.20;;
72949;SDS011;64868;45.710;9.590;2023-11-21T04:52:56;26.45;;;16.75;;
72949;SDS011;64868;45.710;9.590;2023-11-21T04:55:23;24.10;;;15.82;;
72949;SDS011;64868;45.710;9.590;2023-11-21T04:58:09;26.92;;;15.70;;
72949;SDS011;64868;45.710;9.590;2023-11-21T05:00:39;24.42;;;14.65;;
72949;SDS011;64868;45.710;9.590;2023-11-21T05:03:07;22.98;;;14.93;;
72949;SDS011;64868;45.710;9.590;2023-11-21T05:05:32;24.52;;;14.60;;
72949;SDS011;64868;45.710;9.590;2023-11-21T05:08:19;23.88;;;15.23;;
72949;SDS011;64868;45.710;9.590;2023-11-21T05:10:49;25.17;;;14.90;;
72949;SDS011;64868;45.710;9.590;2023-11-21T05:13:17;28.20;;;14.32;;
72949;SDS011;64868;45.710;9.590;2023-11-21T05:15:47;23.95;;;14.73;;
72949;SDS011;64868;45.710;9.590;2023-11-21T05:18:15;21.88;;;14.27;;
72949;SDS011;64868;45.710;9.590;2023-11-21T05:20:45;26.80;;;14.60;;
72949;SDS011;64868;45.710;9.590;2023-11-21T05:23:15;24.77;;;14.73;;
72949;SDS011;64868;45.710;9.590;2023-11-21T05:28:45;25.73;;;16.08;;
72949;SDS011;64868;45.710;9.590;2023-11-21T05:34:01;30.70;;;17.33;;
72949;SDS011;64868;45.710;9.590;2023-11-21T05:36:27;26.25;;;16.27;;
72949;SDS011;64868;45.710;9.590;2023-11-21T05:38:57;25.67;;;15.18;;
72949;SDS011;64868;45.710;9.590;2023-11-21T05:41:27;25.85;;;15.85;;
72949;SDS011;64868;45.710;9.590;2023-11-21T05:44:13;23.88;;;15.77;;
72949;SDS011;64868;45.710;9.590;2023-11-21T05:46:43;23.88;;;14.57;;
72949;SDS011;64868;45.710;9.590;2023-11-21T05:49:13;27.30;;;14.45;;
72949;SDS011;64868;45.710;9.590;2023-11-21T05:51:43;23.67;;;14.73;;
72949;SDS011;64868;45.710;9.590;2023-11-21T05:54:11;25.40;;;15.80;;
72949;SDS011;64868;45.710;9.590;2023-11-21T05:56:41;26.73;;;15.30;;
72949;SDS011;64868;45.710;9.590;2023-11-21T05:59:08;28.63;;;15.60;;
72949;SDS011;64868;45.710;9.590;2023-11-21T06:01:36;24.25;;;14.55;;
72949;SDS011;64868;45.710;9.590;2023-11-21T06:04:06;27.35;;;15.32;;
72949;SDS011;64868;45.710;9.590;2023-11-21T06:06:36;27.13;;;15.18;;
72949;SDS011;64868;45.710;9.590;2023-11-21T06:09:22;27.00;;;15.07;;
72949;SDS011;64868;45.710;9.590;2023-11-21T06:11:53;28.73;;;15.70;;
72949;SDS011;64868;45.710;9.590;2023-11-21T06:14:22;23.50;;;14.95;;
72949;SDS011;64868;45.710;9.590;2023-11-21T06:16:53;26.13;;;15.77;;
72949;SDS011;64868;45.710;9.590;2023-11-21T06:22:09;28.65;;;16.48;;
72949;SDS011;64868;45.710;9.590;2023-11-21T06:24:39;31.20;;;16.58;;
72949;SDS011;64868;45.710;9.590;2023-11-21T06:27:09;28.05;;;17.83;;
72949;SDS011;64868;45.710;9.590;2023-11-21T06:29:38;32.78;;;18.75;;
72949;SDS011;64868;45.710;9.590;2023-11-21T06:32:24;30.02;;;17.92;;
72949;SDS011;64868;45.710;9.590;2023-11-21T06:34:54;34.42;;;18.42;;
72949;SDS011;64868;45.710;9.590;2023-11-21T06:37:22;28.38;;;17.63;;
72949;SDS011;64868;45.710;9.590;2023-11-21T06:39:52;28.83;;;18.20;;
72949;SDS011;64868;45.710;9.590;2023-11-21T06:42:22;25.67;;;15.82;;
72949;SDS011;64868;45.710;9.590;2023-11-21T06:44:52;29.60;;;16.13;;
72949;SDS011;64868;45.710;9.590;2023-11-21T06:47:21;42.97;;;18.98;;
72949;SDS011;64868;45.710;9.590;2023-11-21T06:49:48;57.63;;;24.55;;
72949;SDS011;64868;45.710;9.590;2023-11-21T06:52:18;54.67;;;22.73;;
72949;SDS011;64868;45.710;9.590;2023-11-21T06:57:33;48.92;;;21.17;;
72949;SDS011;64868;45.710;9.590;2023-11-21T07:00:03;44.75;;;20.15;;
72949;SDS011;64868;45.710;9.590;2023-11-21T07:02:33;30.60;;;17.58;;
72949;SDS011;64868;45.710;9.590;2023-11-21T07:05:17;30.27;;;16.70;;
72949;SDS011;64868;45.710;9.590;2023-11-21T07:07:48;34.67;;;16.85;;
72949;SDS011;64868;45.710;9.590;2023-11-21T07:13:04;34.63;;;19.05;;
72949;SDS011;64868;45.710;9.590;2023-11-21T07:15:35;61.58;;;19.48;;
72949;SDS011;64868;45.710;9.590;2023-11-21T07:18:02;33.42;;;17.33;;
72949;SDS011;64868;45.710;9.590;2023-11-21T07:23:15;43.08;;;18.50;;
72949;SDS011;64868;45.710;9.590;2023-11-21T07:25:45;53.92;;;19.95;;
72949;SDS011;64868;45.710;9.590;2023-11-21T07:28:15;36.45;;;17.92;;
72949;SDS011;64868;45.710;9.590;2023-11-21T07:30:45;49.80;;;18.88;;
72949;SDS011;64868;45.710;9.590;2023-11-21T07:33:15;44.72;;;17.90;;
72949;SDS011;64868;45.710;9.590;2023-11-21T07:44:20;30.20;;;17.25;;
72949;SDS011;64868;45.710;9.590;2023-11-21T07:46:48;22.90;;;15.73;;
72949;SDS011;64868;45.710;9.590;2023-11-21T07:49:18;24.92;;;15.68;;
72949;SDS011;64868;45.710;9.590;2023-11-21T07:51:48;26.50;;;16.25;;
72949;SDS011;64868;45.710;9.590;2023-11-21T07:54:35;25.83;;;15.88;;
72949;SDS011;64868;45.710;9.590;2023-11-21T07:57:02;32.75;;;18.35;;
72949;SDS011;64868;45.710;9.590;2023-11-21T07:59:31;40.20;;;17.42;;
72949;SDS011;64868;45.710;9.590;2023-11-21T08:02:01;98.10;;;21.85;;
72949;SDS011;64868;45.710;9.590;2023-11-21T08:04:29;44.88;;;18.00;;
72949;SDS011;64868;45.710;9.590;2023-11-21T08:06:59;31.02;;;17.42;;
72949;SDS011;64868;45.710;9.590;2023-11-21T08:09:46;30.23;;;16.85;;
72949;SDS011;64868;45.710;9.590;2023-11-21T08:12:16;32.88;;;16.90;;
72949;SDS011;64868;45.710;9.590;2023-11-21T08:14:42;37.63;;;17.90;;
72949;SDS011;64868;45.710;9.590;2023-11-21T08:17:10;34.92;;;17.92;;
72949;SDS011;64868;45.710;9.590;2023-11-21T08:19:40;44.00;;;19.55;;
72949;SDS011;64868;45.710;9.590;2023-11-21T08:22:10;38.83;;;18.73;;
72949;SDS011;64868;45.710;9.590;2023-11-21T08:24:38;58.67;;;28.75;;
72949;SDS011;64868;45.710;9.590;2023-11-21T08:29:54;49.80;;;22.40;;
72949;SDS011;64868;45.710;9.590;2023-11-21T08:32:24;38.85;;;21.67;;
72949;SDS011;64868;45.710;9.590;2023-11-21T08:34:54;49.80;;;19.25;;
72949;SDS011;64868;45.710;9.590;2023-11-21T08:37:24;120.22;;;24.10;;
72949;SDS011;64868;45.710;9.590;2023-11-21T08:42:55;34.38;;;16.67;;
72949;SDS011;64868;45.710;9.590;2023-11-21T08:45:25;29.20;;;15.38;;
72949;SDS011;64868;45.710;9.590;2023-11-21T08:47:53;25.35;;;15.57;;
72949;SDS011;64868;45.710;9.590;2023-11-21T08:50:21;25.73;;;13.13;;
72949;SDS011;64868;45.710;9.590;2023-11-21T08:52:56;36.92;;;14.25;;
72949;SDS011;64868;45.710;9.590;2023-11-21T08:55:23;31.20;;;13.60;;
72949;SDS011;64868;45.710;9.590;2023-11-21T08:57:55;26.33;;;14.80;;
72949;SDS011;64868;45.710;9.590;2023-11-21T09:03:28;25.02;;;15.00;;
72949;SDS011;64868;45.710;9.590;2023-11-21T09:05:56;25.02;;;14.98;;
72949;SDS011;64868;45.710;9.590;2023-11-21T09:08:26;21.77;;;13.75;;
72949;SDS011;64868;45.710;9.590;2023-11-21T09:13:40;20.95;;;13.82;;
72949;SDS011;64868;45.710;9.590;2023-11-21T09:16:08;24.08;;;13.75;;
72949;SDS011;64868;45.710;9.590;2023-11-21T09:21:22;24.40;;;13.48;;
72949;SDS011;64868;45.710;9.590;2023-11-21T13:17:01;29.35;;;17.00;;
72949;SDS011;64868;45.710;9.590;2023-11-21T13:19:26;27.80;;;17.45;;
72949;SDS011;64868;45.710;9.590;2023-11-21T13:21:56;27.17;;;16.63;;
72949;SDS011;64868;45.710;9.590;2023-11-21T13:24:24;25.38;;;16.20;;
72949;SDS011;64868;45.710;9.590;2023-11-21T13:26:56;29.92;;;18.30;;
72949;SDS011;64868;45.710;9.590;2023-11-21T13:29:26;27.02;;;18.30;;
72949;SDS011;64868;45.710;9.590;2023-11-21T13:31:56;28.98;;;19.25;;
72949;SDS011;64868;45.710;9.590;2023-11-21T13:34:27;32.03;;;19.77;;
72949;SDS011;64868;45.710;9.590;2023-11-21T13:36:54;31.35;;;19.05;;
72949;SDS011;64868;45.710;9.590;2023-11-21T13:39:26;31.15;;;19.10;;
72949;SDS011;64868;45.710;9.590;2023-11-21T13:41:53;29.10;;;18.73;;
72949;SDS011;64868;45.710;9.590;2023-11-21T13:44:23;30.13;;;20.15;;
72949;SDS011;64868;45.710;9.590;2023-11-21T13:46:56;35.13;;;19.60;;
72949;SDS011;64868;45.710;9.590;2023-11-21T13:49:24;30.55;;;20.00;;
72949;SDS011;64868;45.710;9.590;2023-11-21T13:51:54;32.00;;;20.02;;
72949;SDS011;64868;45.710;9.590;2023-11-21T13:54:24;30.50;;;20.00;;
72949;SDS011;64868;45.710;9.590;2023-11-21T13:56:54;31.42;;;20.48;;
72949;SDS011;64868;45.710;9.590;2023-11-21T13:59:24;31.83;;;20.65;;
72949;SDS011;64868;45.710;9.590;2023-11-21T14:01:56;30.80;;;19.85;;
72949;SDS011;64868;45.710;9.590;2023-11-21T14:04:49;30.90;;;19.15;;
72949;SDS011;64868;45.710;9.590;2023-11-21T14:07:36;33.08;;;19.90;;
72949;SDS011;64868;45.710;9.590;2023-11-21T14:10:04;34.13;;;19.90;;
72949;SDS011;64868;45.710;9.590;2023-11-21T14:12:34;33.50;;;20.13;;
72949;SDS011;64868;45.710;9.590;2023-11-21T14:15:04;35.05;;;22.05;;
72949;SDS011;64868;45.710;9.590;2023-11-21T14:20:21;34.10;;;21.38;;
72949;SDS011;64868;45.710;9.590;2023-11-21T14:22:48;31.13;;;20.67;;
72949;SDS011;64868;45.710;9.590;2023-11-21T14:25:18;33.88;;;21.75;;
72949;SDS011;64868;45.710;9.590;2023-11-21T14:27:49;34.83;;;21.13;;
72949;SDS011;64868;45.710;9.590;2023-11-21T14:30:17;34.75;;;21.63;;
72949;SDS011;64868;45.710;9.590;2023-11-21T14:32:47;27.65;;;18.15;;
72949;SDS011;64868;45.710;9.590;2023-11-21T14:35:20;28.75;;;17.52;;
72949;SDS011;64868;45.710;9.590;2023-11-21T14:37:47;27.63;;;17.33;;
72949;SDS011;64868;45.710;9.590;2023-11-21T14:40:18;24.88;;;13.45;;
72949;SDS011;64868;45.710;9.590;2023-11-21T14:42:51;21.38;;;12.63;;
72949;SDS011;64868;45.710;9.590;2023-11-21T14:45:21;19.13;;;12.13;;
72949;SDS011;64868;45.710;9.590;2023-11-21T14:47:50;19.90;;;11.63;;
72949;SDS011;64868;45.710;9.590;2023-11-21T14:50:32;19.50;;;11.18;;
72949;SDS011;64868;45.710;9.590;2023-11-21T14:53:09;18.25;;;9.52;;
72949;SDS011;64868;45.710;9.590;2023-11-21T14:55:39;16.88;;;9.43;;
72949;SDS011;64868;45.710;9.590;2023-11-21T14:58:19;17.90;;;10.38;;
72949;SDS011;64868;45.710;9.590;2023-11-21T15:01:06;16.95;;;9.38;;
72949;SDS011;64868;45.710;9.590;2023-11-21T15:03:36;16.33;;;9.32;;
72949;SDS011;64868;45.710;9.590;2023-11-21T15:06:22;16.58;;;9.50;;
72949;SDS011;64868;45.710;9.590;2023-11-21T15:08:54;15.82;;;9.73;;
72949;SDS011;64868;45.710;9.590;2023-11-21T15:11:45;14.80;;;8.48;;
72949;SDS011;64868;45.710;9.590;2023-11-21T15:14:14;13.85;;;8.05;;
72949;SDS011;64868;45.710;9.590;2023-11-21T15:16:47;13.10;;;7.65;;
72949;SDS011;64868;45.710;9.590;2023-11-21T15:22:06;15.23;;;7.80;;
72949;SDS011;64868;45.710;9.590;2023-11-21T15:24:38;12.63;;;7.30;;
72949;SDS011;64868;45.710;9.590;2023-11-21T15:27:09;14.98;;;8.35;;
72949;SDS011;64868;45.710;9.590;2023-11-21T15:32:25;21.27;;;9.75;;
72949;SDS011;64868;45.710;9.590;2023-11-21T15:34:53;16.85;;;8.90;;
72949;SDS011;64868;45.710;9.590;2023-11-21T15:37:39;19.73;;;8.55;;
72949;SDS011;64868;45.710;9.590;2023-11-21T15:40:08;16.85;;;8.88;;
72949;SDS011;64868;45.710;9.590;2023-11-21T15:42:38;21.40;;;9.05;;
72949;SDS011;64868;45.710;9.590;2023-11-21T15:45:08;19.80;;;9.20;;
72949;SDS011;64868;45.710;9.590;2023-11-21T15:47:54;19.08;;;9.73;;
72949;SDS011;64868;45.710;9.590;2023-11-21T15:50:24;22.80;;;9.68;;
72949;SDS011;64868;45.710;9.590;2023-11-21T15:52:54;27.70;;;10.40;;
72949;SDS011;64868;45.710;9.590;2023-11-21T15:55:22;19.25;;;9.85;;
72949;SDS011;64868;45.710;9.590;2023-11-21T15:57:50;19.17;;;10.00;;
72949;SDS011;64868;45.710;9.590;2023-11-21T16:00:20;21.67;;;9.63;;
72949;SDS011;64868;45.710;9.590;2023-11-21T16:03:06;24.77;;;11.10;;
72949;SDS011;64868;45.710;9.590;2023-11-21T16:05:36;19.70;;;10.00;;
72949;SDS011;64868;45.710;9.590;2023-11-21T16:13:53;19.90;;;11.02;;
72949;SDS011;64868;45.710;9.590;2023-11-21T16:19:10;23.35;;;10.88;;
72949;SDS011;64868;45.710;9.590;2023-11-21T16:21:54;19.75;;;11.10;;
72949;SDS011;64868;45.710;9.590;2023-11-21T16:24:24;19.13;;;10.43;;
72949;SDS011;64868;45.710;9.590;2023-11-21T16:29:21;21.00;;;11.00;;
72949;SDS011;64868;45.710;9.590;2023-11-21T16:34:38;20.23;;;11.02;;
72949;SDS011;64868;45.710;9.590;2023-11-21T16:37:08;22.02;;;10.82;;
72949;SDS011;64868;45.710;9.590;2023-11-21T16:39:38;19.23;;;10.90;;
72949;SDS011;64868;45.710;9.590;2023-11-21T16:42:24;18.65;;;11.25;;
72949;SDS011;64868;45.710;9.590;2023-11-21T16:44:55;20.73;;;10.95;;
72949;SDS011;64868;45.710;9.590;2023-11-21T16:47:22;22.60;;;10.98;;
72949;SDS011;64868;45.710;9.590;2023-11-21T16:52:35;20.85;;;10.40;;
72949;SDS011;64868;45.710;9.590;2023-11-21T16:55:05;22.05;;;10.85;;
72949;SDS011;64868;45.710;9.590;2023-11-21T17:00:38;20.13;;;11.57;;
72949;SDS011;64868;45.710;9.590;2023-11-21T17:03:08;19.33;;;11.07;;
72949;SDS011;64868;45.710;9.590;2023-11-21T17:05:38;20.60;;;11.07;;
72949;SDS011;64868;45.710;9.590;2023-11-21T17:08:08;26.13;;;13.10;;
72949;SDS011;64868;45.710;9.590;2023-11-21T17:10:39;23.92;;;13.18;;
72949;SDS011;64868;45.710;9.590;2023-11-21T17:13:09;20.83;;;12.43;;
72949;SDS011;64868;45.710;9.590;2023-11-21T17:15:34;25.05;;;13.68;;
72949;SDS011;64868;45.710;9.590;2023-11-21T17:18:05;24.85;;;15.27;;
72949;SDS011;64868;45.710;9.590;2023-11-21T17:20:35;24.77;;;13.10;;
72949;SDS011;64868;45.710;9.590;2023-11-21T17:23:05;21.20;;;12.48;;
72949;SDS011;64868;45.710;9.590;2023-11-21T17:25:50;26.25;;;13.95;;
72949;SDS011;64868;45.710;9.590;2023-11-21T17:31:03;23.42;;;12.63;;
72949;SDS011;64868;45.710;9.590;2023-11-21T17:33:31;23.38;;;12.48;;
72949;SDS011;64868;45.710;9.590;2023-11-21T17:36:01;20.95;;;12.68;;
72949;SDS011;64868;45.710;9.590;2023-11-21T17:38:27;23.50;;;12.40;;
72949;SDS011;64868;45.710;9.590;2023-11-21T17:40:57;21.50;;;13.27;;
72949;SDS011;64868;45.710;9.590;2023-11-21T17:46:14;23.00;;;13.43;;
72949;SDS011;64868;45.710;9.590;2023-11-21T17:48:45;29.38;;;14.32;;
72949;SDS011;64868;45.710;9.590;2023-11-21T17:54:03;24.20;;;14.15;;
72949;SDS011;64868;45.710;9.590;2023-11-21T17:56:33;29.00;;;14.93;;
72949;SDS011;64868;45.710;9.590;2023-11-21T17:59:03;26.40;;;14.65;;
72949;SDS011;64868;45.710;9.590;2023-11-21T18:01:37;31.27;;;14.98;;
72949;SDS011;64868;45.710;9.590;2023-11-21T18:04:08;29.60;;;15.43;;
72949;SDS011;64868;45.710;9.590;2023-11-21T18:06:54;33.08;;;15.35;;
72949;SDS011;64868;45.710;9.590;2023-11-21T18:12:27;28.25;;;15.02;;
72949;SDS011;64868;45.710;9.590;2023-11-21T18:14:57;25.95;;;14.05;;
72949;SDS011;64868;45.710;9.590;2023-11-21T18:17:44;26.80;;;14.00;;
72949;SDS011;64868;45.710;9.590;2023-11-21T18:20:14;27.95;;;13.73;;
72949;SDS011;64868;45.710;9.590;2023-11-21T18:22:45;27.00;;;13.65;;
72949;SDS011;64868;45.710;9.590;2023-11-21T18:25:12;26.42;;;13.95;;
72949;SDS011;64868;45.710;9.590;2023-11-21T18:27:42;28.75;;;14.10;;
72949;SDS011;64868;45.710;9.590;2023-11-21T18:33:13;24.00;;;14.15;;
72949;SDS011;64868;45.710;9.590;2023-11-21T18:35:43;29.27;;;14.85;;
72949;SDS011;64868;45.710;9.590;2023-11-21T18:43:46;23.50;;;13.55;;
72949;SDS011;64868;45.710;9.590;2023-11-21T18:46:16;25.63;;;14.82;;
72949;SDS011;64868;45.710;9.590;2023-11-21T18:48:46;25.60;;;15.20;;
72949;SDS011;64868;45.710;9.590;2023-11-21T18:54:03;25.33;;;13.65;;
72949;SDS011;64868;45.710;9.590;2023-11-21T18:56:30;25.10;;;14.10;;
72949;SDS011;64868;45.710;9.590;2023-11-21T18:59:16;26.05;;;14.75;;
72949;SDS011;64868;45.710;9.590;2023-11-21T19:01:47;24.77;;;13.75;;
72949;SDS011;64868;45.710;9.590;2023-11-21T19:04:17;26.67;;;15.27;;
72949;SDS011;64868;45.710;9.590;2023-11-21T19:06:47;28.63;;;14.48;;
72949;SDS011;64868;45.710;9.590;2023-11-21T19:09:23;26.80;;;13.38;;
72949;SDS011;64868;45.710;9.590;2023-11-21T19:14:38;25.27;;;14.23;;
72949;SDS011;64868;45.710;9.590;2023-11-21T19:17:05;24.98;;;13.50;;
72949;SDS011;64868;45.710;9.590;2023-11-21T19:19:35;22.65;;;13.38;;
72949;SDS011;64868;45.710;9.590;2023-11-21T19:22:06;24.88;;;13.02;;
72949;SDS011;64868;45.710;9.590;2023-11-21T19:24:36;25.77;;;13.52;;
72949;SDS011;64868;45.710;9.590;2023-11-21T19:27:04;25.77;;;13.95;;
72949;SDS011;64868;45.710;9.590;2023-11-21T19:29:34;24.73;;;13.55;;
72949;SDS011;64868;45.710;9.590;2023-11-21T19:32:02;23.45;;;12.60;;
72949;SDS011;64868;45.710;9.590;2023-11-21T19:34:33;21.92;;;11.93;;
72949;SDS011;64868;45.710;9.590;2023-11-21T19:37:19;24.13;;;13.38;;
72949;SDS011;64868;45.710;9.590;2023-11-21T19:39:46;25.50;;;14.88;;
72949;SDS011;64868;45.710;9.590;2023-11-21T19:42:17;26.15;;;15.57;;
72949;SDS011;64868;45.710;9.590;2023-11-21T19:45:03;29.38;;;16.38;;
72949;SDS011;64868;45.710;9.590;2023-11-21T19:47:29;27.67;;;15.63;;
72949;SDS011;64868;45.710;9.590;2023-11-21T19:49:59;23.60;;;14.02;;
72949;SDS011;64868;45.710;9.590;2023-11-21T19:52:26;27.52;;;13.95;;
72949;SDS011;64868;45.710;9.590;2023-11-21T19:57:43;25.35;;;13.52;;
72949;SDS011;64868;45.710;9.590;2023-11-21T20:02:57;32.55;;;18.27;;
72949;SDS011;64868;45.710;9.590;2023-11-21T20:05:27;31.00;;;17.45;;
72949;SDS011;64868;45.710;9.590;2023-11-21T20:07:57;27.92;;;16.60;;
72949;SDS011;64868;45.710;9.590;2023-11-21T20:10:27;32.03;;;16.95;;
72949;SDS011;64868;45.710;9.590;2023-11-21T20:12:56;26.95;;;14.70;;
72949;SDS011;64868;45.710;9.590;2023-11-21T20:15:23;24.13;;;14.20;;
72949;SDS011;64868;45.710;9.590;2023-11-21T20:23:28;31.30;;;16.77;;
72949;SDS011;64868;45.710;9.590;2023-11-21T20:25:58;27.08;;;15.00;;
72949;SDS011;64868;45.710;9.590;2023-11-21T20:28:29;33.58;;;15.57;;
72949;SDS011;64868;45.710;9.590;2023-11-21T20:30:59;27.08;;;15.85;;
72949;SDS011;64868;45.710;9.590;2023-11-21T20:33:26;27.08;;;14.20;;
72949;SDS011;64868;45.710;9.590;2023-11-21T20:35:56;22.90;;;13.25;;
72949;SDS011;64868;45.710;9.590;2023-11-21T20:38:22;24.92;;;13.70;;
72949;SDS011;64868;45.710;9.590;2023-11-21T20:41:09;22.05;;;13.13;;
72949;SDS011;64868;45.710;9.590;2023-11-21T20:43:55;20.30;;;11.70;;
72949;SDS011;64868;45.710;9.590;2023-11-21T20:46:28;23.40;;;12.40;;
72949;SDS011;64868;45.710;9.590;2023-11-21T20:48:58;22.45;;;11.73;;
72949;SDS011;64868;45.710;9.590;2023-11-21T20:51:29;24.33;;;13.13;;
72949;SDS011;64868;45.710;9.590;2023-11-21T20:53:59;23.65;;;14.50;;
72949;SDS011;64868;45.710;9.590;2023-11-21T20:56:26;26.08;;;14.18;;